createdAt,value
2023-03-17T00:01:54.581Z,3.14
2023-03-17T00:04:24.488Z,3.12
2023-03-17T00:06:51.856Z,3.07
2023-03-17T00:09:20.256Z,3.00
2023-03-17T00:11:48.115Z,2.96
2023-03-17T00:14:15.170Z,3.00
2023-03-17T00:16:44.410Z,2.92
2023-03-17T00:19:37.074Z,3.01
2023-03-17T00:22:06.163Z,2.91
2023-03-17T00:24:33.651Z,2.76
2023-03-17T00:27:00.862Z,2.68
2023-03-17T00:29:28.084Z,2.51
2023-03-17T00:31:57.569Z,2.57
2023-03-17T00:34:24.200Z,2.55
2023-03-17T00:36:51.676Z,2.30
2023-03-17T00:39:19.013Z,2.50
2023-03-17T00:44:12.748Z,2.26
2023-03-17T00:46:41.698Z,2.27
2023-03-17T00:49:21.424Z,2.34
2023-03-17T00:51:49.721Z,2.28
2023-03-17T00:54:17.863Z,2.27
2023-03-17T00:56:45.715Z,2.32
2023-03-17T00:59:39.001Z,1.84
2023-03-17T01:02:05.755Z,1.87
2023-03-17T01:04:34.001Z,1.95
2023-03-17T01:07:00.716Z,1.91
2023-03-17T01:09:28.492Z,1.90
2023-03-17T01:11:55.826Z,1.78
2023-03-17T01:14:23.028Z,1.81
2023-03-17T01:16:50.572Z,1.65
2023-03-17T01:19:17.242Z,1.75
2023-03-17T01:21:43.918Z,1.95
2023-03-17T01:24:10.652Z,2.04
2023-03-17T01:26:37.876Z,1.96
2023-03-17T01:29:06.374Z,2.13
2023-03-17T01:31:33.075Z,2.10
2023-03-17T01:33:59.908Z,2.02
2023-03-17T01:36:26.644Z,1.88
2023-03-17T01:38:53.796Z,1.96
2023-03-17T01:41:20.952Z,2.00
2023-03-17T01:43:47.932Z,2.04
2023-03-17T01:46:14.832Z,1.88
2023-03-17T01:49:15.939Z,1.96
2023-03-17T01:51:45.291Z,2.02
2023-03-17T01:54:22.027Z,2.00
2023-03-17T01:56:51.800Z,1.79
2023-03-17T01:59:23.905Z,1.63
2023-03-17T02:01:54.586Z,1.71
2023-03-17T02:04:21.986Z,1.69
2023-03-17T02:06:57.856Z,1.57
2023-03-17T02:09:25.118Z,1.53
2023-03-17T02:11:51.950Z,1.62
2023-03-17T02:14:19.002Z,1.72
2023-03-17T02:16:45.780Z,1.68
2023-03-17T02:19:12.785Z,1.52
2023-03-17T02:21:41.738Z,1.40
2023-03-17T02:24:17.657Z,1.38
2023-03-17T02:26:46.196Z,1.34
2023-03-17T02:29:13.037Z,1.48
2023-03-17T02:31:39.795Z,1.43
2023-03-17T02:34:06.680Z,1.45
2023-03-17T02:36:33.534Z,1.43
2023-03-17T02:39:00.164Z,1.55
2023-03-17T02:41:27.417Z,1.48
2023-03-17T02:43:54.944Z,1.05
2023-03-17T02:46:21.971Z,1.15
2023-03-17T02:48:49.856Z,1.37
2023-03-17T02:51:16.609Z,1.31
2023-03-17T02:53:43.282Z,1.31
2023-03-17T02:56:10.321Z,1.44
2023-03-17T02:58:37.005Z,1.43
2023-03-17T03:01:04.195Z,1.34
2023-03-17T03:03:31.325Z,1.21
2023-03-17T03:05:58.513Z,1.21
2023-03-17T03:08:26.375Z,1.36
2023-03-17T03:10:53.267Z,1.31
2023-03-17T03:13:19.882Z,1.34
2023-03-17T03:15:47.420Z,1.36
2023-03-17T03:18:14.051Z,1.36
2023-03-17T03:20:43.842Z,1.27
2023-03-17T03:23:11.312Z,1.19
2023-03-17T03:25:38.739Z,0.85
2023-03-17T03:28:08.142Z,0.99
2023-03-17T03:30:36.512Z,0.83
2023-03-17T03:33:04.179Z,0.95
2023-03-17T03:35:31.137Z,0.93
2023-03-17T03:37:58.119Z,0.90
2023-03-17T03:40:25.243Z,1.00
2023-03-17T03:42:51.862Z,0.98
2023-03-17T03:45:18.756Z,1.06
2023-03-17T03:47:46.084Z,0.81
2023-03-17T03:50:13.377Z,0.95
2023-03-17T03:52:40.254Z,1.02
2023-03-17T03:55:07.408Z,1.13
2023-03-17T03:57:34.050Z,0.74
2023-03-17T04:00:00.802Z,0.95
2023-03-17T04:02:27.792Z,0.96
2023-03-17T04:04:54.748Z,0.97
2023-03-17T04:07:21.526Z,1.03
2023-03-17T04:09:49.378Z,1.08
2023-03-17T04:12:17.025Z,1.06
2023-03-17T04:14:44.654Z,0.98
2023-03-17T04:17:12.200Z,0.89
2023-03-17T04:19:39.168Z,0.94
2023-03-17T04:22:09.099Z,0.84
2023-03-17T04:24:35.749Z,0.89
2023-03-17T04:27:04.871Z,0.87
2023-03-17T04:29:32.514Z,0.73
2023-03-17T04:31:59.203Z,0.78
2023-03-17T04:34:27.330Z,0.81
2023-03-17T04:36:54.092Z,0.83
2023-03-17T04:39:20.958Z,0.83
2023-03-17T04:41:47.610Z,0.76
2023-03-17T04:44:14.321Z,0.81
2023-03-17T04:46:41.011Z,0.77
2023-03-17T04:49:08.510Z,0.84
2023-03-17T04:51:36.915Z,0.83
2023-03-17T04:54:03.944Z,0.93
2023-03-17T04:56:31.972Z,0.92
2023-03-17T04:58:58.771Z,0.92
2023-03-17T05:01:25.608Z,0.95
2023-03-17T05:03:52.667Z,0.87
2023-03-17T05:06:19.389Z,0.83
2023-03-17T05:08:46.172Z,0.89
2023-03-17T05:11:14.043Z,0.82
2023-03-17T05:13:41.116Z,0.79
2023-03-17T05:16:09.068Z,0.56
2023-03-17T05:18:37.248Z,0.17
2023-03-17T05:21:05.706Z,0.47
2023-03-17T05:23:32.794Z,0.53
2023-03-17T05:25:59.475Z,0.53
2023-03-17T05:28:26.838Z,0.59
2023-03-17T05:30:54.364Z,0.42
2023-03-17T05:33:21.871Z,0.24
2023-03-17T05:35:48.716Z,0.35
2023-03-17T05:38:16.169Z,0.31
2023-03-17T05:40:43.514Z,0.24
2023-03-17T05:43:10.639Z,0.15
2023-03-17T05:45:37.696Z,0.17
2023-03-17T05:48:04.912Z,0.32
2023-03-17T05:50:31.980Z,0.36
2023-03-17T05:52:58.770Z,0.36
2023-03-17T05:55:25.494Z,0.47
2023-03-17T05:57:52.165Z,0.47
2023-03-17T06:00:21.033Z,0.56
2023-03-17T06:02:47.795Z,0.54
2023-03-17T06:05:14.578Z,0.50
2023-03-17T06:07:53.142Z,0.47
2023-03-17T06:10:22.010Z,0.57
2023-03-17T06:12:48.680Z,0.43
2023-03-17T06:15:16.721Z,0.38
2023-03-17T06:17:43.614Z,0.29
2023-03-17T06:20:11.831Z,0.33
2023-03-17T06:22:42.345Z,0.42
2023-03-17T06:25:15.697Z,0.53
2023-03-17T06:27:42.718Z,0.64
2023-03-17T06:30:10.319Z,0.76
2023-03-17T06:32:38.015Z,1.02
2023-03-17T06:35:05.555Z,1.12
2023-03-17T06:37:32.196Z,1.29
2023-03-17T06:40:00.897Z,1.28
2023-03-17T06:42:28.210Z,1.42
2023-03-17T06:44:55.663Z,1.50
2023-03-17T06:47:25.457Z,1.47
2023-03-17T06:49:53.466Z,1.59
2023-03-17T06:52:20.157Z,1.74
2023-03-17T06:54:47.258Z,1.89
2023-03-17T06:57:14.054Z,1.75
2023-03-17T06:59:41.797Z,1.47
2023-03-17T07:02:10.595Z,1.69
2023-03-17T07:04:38.334Z,2.00
2023-03-17T07:07:05.777Z,2.01
2023-03-17T07:09:35.759Z,1.61
2023-03-17T07:12:06.070Z,1.66
2023-03-17T07:14:34.046Z,1.77
2023-03-17T07:17:00.688Z,2.00
2023-03-17T07:19:27.515Z,2.29
2023-03-17T07:21:57.932Z,2.48
2023-03-17T07:24:25.691Z,2.73
2023-03-17T07:26:52.902Z,2.62
2023-03-17T07:29:19.842Z,2.77
2023-03-17T07:31:47.143Z,3.10
2023-03-17T07:34:14.015Z,3.82
2023-03-17T07:36:40.744Z,3.80
2023-03-17T07:39:10.740Z,3.59
2023-03-17T07:41:38.455Z,3.57
2023-03-17T07:44:05.259Z,3.56
2023-03-17T07:46:32.126Z,3.70
2023-03-17T07:48:59.086Z,4.23
2023-03-17T07:51:28.112Z,4.43
2023-03-17T07:54:03.271Z,4.76
2023-03-17T07:56:33.136Z,4.44
2023-03-17T07:59:00.057Z,4.85
2023-03-17T08:01:28.053Z,4.95
2023-03-17T08:03:56.633Z,4.93
2023-03-17T08:06:25.498Z,4.95
2023-03-17T08:08:53.541Z,5.64
2023-03-17T08:11:21.154Z,5.20
2023-03-17T08:13:48.253Z,5.08
2023-03-17T08:16:14.983Z,5.10
2023-03-17T08:18:41.826Z,5.26
2023-03-17T08:21:08.500Z,4.96
2023-03-17T08:23:35.723Z,5.08
2023-03-17T08:26:04.231Z,5.07
2023-03-17T08:28:31.852Z,5.17
2023-03-17T08:31:13.831Z,5.22
2023-03-17T08:33:42.463Z,5.26
2023-03-17T08:36:11.445Z,5.37
2023-03-17T08:38:39.393Z,5.46
2023-03-17T08:41:08.911Z,5.66
2023-03-17T08:43:36.778Z,5.98
2023-03-17T08:46:12.970Z,6.20
2023-03-17T08:48:39.926Z,6.36
2023-03-17T08:51:06.961Z,6.67
2023-03-17T08:53:35.144Z,6.59
2023-03-17T08:56:02.639Z,6.45
2023-03-17T08:58:29.472Z,6.56
2023-03-17T09:01:00.531Z,6.58
2023-03-17T09:03:27.849Z,6.92
2023-03-17T09:05:54.908Z,7.70
2023-03-17T09:08:22.706Z,7.50
2023-03-17T09:10:50.492Z,7.16
2023-03-17T09:13:17.712Z,7.47
2023-03-17T09:15:44.857Z,7.93
2023-03-17T09:18:11.760Z,8.08
2023-03-17T09:20:38.463Z,8.68
2023-03-17T09:23:09.242Z,8.39
2023-03-17T09:25:37.515Z,8.71
2023-03-17T09:28:05.139Z,9.28
2023-03-17T09:30:32.872Z,9.24
2023-03-17T09:33:00.743Z,9.10
2023-03-17T09:35:28.249Z,8.87
2023-03-17T09:37:54.917Z,8.77
2023-03-17T09:40:28.646Z,9.29
2023-03-17T09:43:18.729Z,9.60
2023-03-17T09:45:45.640Z,9.63
2023-03-17T09:48:29.105Z,9.70
2023-03-17T09:51:02.189Z,10.01
2023-03-17T09:53:36.047Z,10.43
2023-03-17T09:56:11.722Z,10.51
2023-03-17T09:58:42.114Z,10.86
2023-03-17T10:01:10.437Z,10.34
2023-03-17T10:03:37.604Z,10.78
2023-03-17T10:06:44.960Z,10.85
2023-03-17T10:09:26.116Z,10.80
2023-03-17T10:12:09.981Z,11.22
2023-03-17T10:14:51.689Z,11.88
2023-03-17T10:17:26.193Z,11.60
2023-03-17T10:19:53.034Z,12.39
2023-03-17T10:22:25.388Z,12.24
2023-03-17T10:24:56.920Z,12.46
2023-03-17T10:27:23.606Z,13.10
2023-03-17T10:29:50.885Z,14.13
2023-03-17T10:32:17.504Z,13.94
2023-03-17T10:34:44.421Z,13.16
2023-03-17T10:37:17.756Z,13.01
2023-03-17T10:39:49.584Z,13.63
2023-03-17T10:42:27.886Z,13.77
2023-03-17T10:45:15.586Z,13.56
2023-03-17T10:47:48.340Z,13.91
2023-03-17T10:50:15.469Z,13.41
2023-03-17T10:52:42.674Z,13.31
2023-03-17T10:55:14.653Z,14.30
2023-03-17T10:57:51.531Z,14.89
2023-03-17T11:00:20.242Z,15.23
2023-03-17T11:02:58.404Z,15.51
2023-03-17T11:05:29.681Z,15.68
2023-03-17T11:08:19.086Z,15.74
2023-03-17T11:10:46.061Z,15.96
2023-03-17T11:13:18.828Z,16.44
2023-03-17T11:16:08.331Z,16.52
2023-03-17T11:18:37.488Z,16.93
2023-03-17T11:21:08.192Z,16.85
2023-03-17T11:23:47.629Z,16.74
2023-03-17T11:26:45.286Z,16.79
2023-03-17T11:29:24.536Z,16.92
2023-03-17T11:31:59.945Z,16.80
2023-03-17T11:34:33.863Z,16.91
2023-03-17T11:37:37.871Z,16.91
2023-03-17T11:40:19.769Z,16.78
2023-03-17T11:43:06.491Z,16.79
2023-03-17T11:45:52.684Z,16.65
2023-03-17T11:48:31.760Z,16.78
2023-03-17T11:51:20.215Z,17.10
2023-03-17T11:53:49.575Z,17.35
2023-03-17T11:56:21.740Z,17.36
2023-03-17T11:58:56.390Z,17.36
2023-03-17T12:01:30.137Z,17.21
2023-03-17T12:04:24.480Z,17.39
2023-03-17T12:06:58.712Z,17.30
2023-03-17T12:09:35.787Z,17.23
2023-03-17T12:12:04.476Z,17.44
2023-03-17T12:14:36.175Z,17.53
2023-03-17T12:17:12.490Z,17.38
2023-03-17T12:19:54.367Z,17.69
2023-03-17T12:22:36.740Z,17.61
2023-03-17T12:25:12.888Z,17.57
2023-03-17T12:28:11.067Z,17.65
2023-03-17T12:30:50.128Z,17.79
2023-03-17T12:33:24.776Z,17.79
2023-03-17T12:35:52.162Z,17.85
2023-03-17T12:38:37.432Z,17.76
2023-03-17T12:41:31.571Z,18.06
2023-03-17T12:44:39.362Z,18.01
2023-03-17T12:47:24.299Z,18.07
2023-03-17T12:50:42.155Z,18.21
2023-03-17T12:53:11.378Z,18.26
2023-03-17T12:55:38.867Z,18.18
2023-03-17T12:58:24.792Z,18.09
2023-03-17T13:01:23.332Z,17.32
2023-03-17T13:03:58.908Z,17.34
2023-03-17T13:06:25.754Z,17.49
2023-03-17T13:08:53.537Z,17.63
2023-03-17T13:11:36.799Z,17.88
2023-03-17T13:14:14.213Z,17.76
2023-03-17T13:16:46.675Z,17.63
2023-03-17T13:19:18.812Z,17.49
2023-03-17T13:22:00.714Z,17.60
2023-03-17T13:24:46.986Z,17.54
2023-03-17T13:27:34.040Z,17.33
2023-03-17T13:30:24.375Z,17.57
2023-03-17T13:33:11.315Z,17.47
2023-03-17T13:36:03.042Z,17.25
2023-03-17T13:38:35.563Z,17.15
2023-03-17T13:41:14.266Z,16.99
2023-03-17T13:44:13.668Z,17.03
2023-03-17T13:46:44.429Z,16.89
2023-03-17T13:49:16.672Z,17.11
2023-03-17T13:51:56.486Z,17.07
2023-03-17T13:54:35.336Z,16.96
2023-03-17T13:57:26.307Z,16.94
2023-03-17T14:00:15.164Z,16.71
2023-03-17T14:02:43.881Z,16.68
2023-03-17T14:05:29.467Z,16.66
2023-03-17T14:08:26.618Z,16.48
2023-03-17T14:11:00.631Z,16.61
2023-03-17T14:13:34.454Z,16.66
2023-03-17T14:16:30.065Z,16.50
2023-03-17T14:19:21.800Z,16.55
2023-03-17T14:21:48.817Z,16.74
2023-03-17T14:24:25.576Z,16.86
2023-03-17T14:26:53.104Z,16.65
2023-03-17T14:29:31.079Z,16.30
2023-03-17T14:32:07.691Z,16.33
2023-03-17T14:34:34.467Z,16.32
2023-03-17T14:37:02.944Z,16.35
2023-03-17T14:39:29.957Z,16.38
2023-03-17T14:42:05.127Z,16.28
2023-03-17T14:44:39.831Z,16.09
2023-03-17T14:47:14.750Z,16.00
2023-03-17T14:49:41.523Z,15.79
2023-03-17T14:52:20.832Z,15.73
2023-03-17T14:54:53.646Z,15.59
2023-03-17T14:57:26.214Z,15.52
2023-03-17T15:00:21.343Z,15.50
2023-03-17T15:02:56.360Z,15.53
2023-03-17T15:05:28.714Z,15.45
2023-03-17T15:07:55.462Z,15.44
2023-03-17T15:10:25.268Z,15.37
2023-03-17T15:13:02.121Z,15.32
2023-03-17T15:15:32.078Z,15.26
2023-03-17T15:18:03.075Z,15.14
2023-03-17T15:20:33.946Z,15.28
2023-03-17T15:23:06.204Z,15.10
2023-03-17T15:25:42.142Z,14.98
2023-03-17T15:28:13.301Z,14.96
2023-03-17T15:30:48.515Z,14.86
2023-03-17T15:33:35.526Z,14.82
2023-03-17T15:36:02.636Z,14.78
2023-03-17T15:38:29.689Z,14.58
2023-03-17T15:40:57.086Z,14.69
2023-03-17T15:43:23.712Z,14.57
2023-03-17T15:46:05.824Z,14.27
2023-03-17T15:48:36.345Z,14.44
2023-03-17T15:51:05.535Z,14.15
2023-03-17T15:53:32.354Z,14.26
2023-03-17T15:55:59.306Z,14.23
2023-03-17T15:58:26.222Z,14.35
2023-03-17T16:00:57.162Z,14.23
2023-03-17T16:03:33.395Z,14.32
2023-03-17T16:06:02.651Z,14.27
2023-03-17T16:08:29.252Z,14.29
2023-03-17T16:10:55.882Z,14.16
2023-03-17T16:13:22.506Z,14.18
2023-03-17T16:15:55.187Z,14.09
2023-03-17T16:18:31.492Z,13.94
2023-03-17T16:20:58.477Z,13.96
2023-03-17T16:23:28.012Z,13.85
2023-03-17T16:25:59.271Z,13.71
2023-03-17T16:28:32.998Z,13.54
2023-03-17T16:31:01.934Z,13.53
2023-03-17T16:33:33.323Z,13.40
2023-03-17T16:36:01.012Z,13.50
2023-03-17T16:38:32.973Z,13.75
2023-03-17T16:41:07.971Z,13.73
2023-03-17T16:43:40.099Z,13.61
2023-03-17T16:46:07.781Z,13.52
2023-03-17T16:48:34.622Z,13.53
2023-03-17T16:51:01.530Z,13.63
2023-03-17T16:53:28.142Z,13.55
2023-03-17T16:55:55.843Z,13.57
2023-03-17T16:58:28.955Z,13.77
2023-03-17T17:01:02.707Z,13.81
2023-03-17T17:03:31.386Z,13.42
2023-03-17T17:05:58.289Z,13.46
2023-03-17T17:08:24.914Z,13.51
2023-03-17T17:10:51.822Z,13.79
2023-03-17T17:13:18.502Z,13.81
2023-03-17T17:15:45.339Z,13.87
2023-03-17T17:18:18.293Z,13.64
2023-03-17T17:20:46.029Z,13.79
2023-03-17T17:23:16.014Z,13.75
2023-03-17T17:25:43.491Z,13.75
2023-03-17T17:28:12.093Z,13.75
2023-03-17T17:30:38.746Z,13.82
2023-03-17T17:33:05.647Z,13.70
2023-03-17T17:35:33.369Z,13.78
2023-03-17T17:38:02.072Z,13.85
2023-03-17T17:40:29.569Z,13.76
2023-03-17T17:42:57.749Z,13.72
2023-03-17T17:45:24.773Z,13.56
2023-03-17T17:47:51.590Z,13.29
2023-03-17T17:50:23.425Z,13.24
2023-03-17T17:52:50.754Z,13.23
2023-03-17T17:55:17.709Z,13.10
2023-03-17T17:57:44.364Z,13.04
2023-03-17T18:00:17.241Z,12.77
2023-03-17T18:02:44.887Z,12.89
2023-03-17T18:05:12.845Z,12.83
2023-03-17T18:07:40.457Z,12.90
2023-03-17T18:10:07.785Z,12.64
2023-03-17T18:12:34.499Z,12.42
2023-03-17T18:15:01.147Z,12.50
2023-03-17T18:17:28.040Z,12.29
2023-03-17T18:19:55.200Z,12.45
2023-03-17T18:22:22.666Z,12.31
2023-03-17T18:24:49.966Z,12.16
2023-03-17T18:27:17.010Z,12.18
2023-03-17T18:29:44.064Z,12.00
2023-03-17T18:32:12.506Z,11.89
2023-03-17T18:34:45.941Z,11.80
2023-03-17T18:37:15.515Z,11.94
2023-03-17T18:39:42.680Z,11.74
2023-03-17T18:42:09.811Z,11.75
2023-03-17T18:44:37.015Z,11.79
2023-03-17T18:47:04.381Z,11.75
2023-03-17T18:49:31.147Z,11.65
2023-03-17T18:51:59.560Z,11.42
2023-03-17T18:54:27.729Z,11.21
2023-03-17T18:56:55.227Z,11.28
2023-03-17T18:59:21.886Z,11.30
2023-03-17T19:01:48.571Z,11.37
2023-03-17T19:04:15.635Z,11.25
2023-03-17T19:06:42.798Z,11.06
2023-03-17T19:09:10.990Z,10.92
2023-03-17T19:11:42.053Z,10.72
2023-03-17T19:14:09.948Z,10.57
2023-03-17T19:16:36.805Z,10.39
2023-03-17T19:19:03.547Z,10.27
2023-03-17T19:21:31.098Z,10.22
2023-03-17T19:24:01.238Z,10.32
2023-03-17T19:26:28.110Z,10.37
2023-03-17T19:28:56.724Z,10.40
2023-03-17T19:31:24.761Z,10.44
2023-03-17T19:33:51.872Z,10.46
2023-03-17T19:36:18.643Z,10.35
2023-03-17T19:38:45.799Z,10.03
2023-03-17T19:41:12.826Z,9.95
2023-03-17T19:43:41.389Z,9.84
2023-03-17T19:46:09.689Z,9.93
2023-03-17T19:48:37.446Z,9.97
2023-03-17T19:51:04.801Z,9.89
2023-03-17T19:53:31.427Z,9.68
2023-03-17T19:55:58.069Z,9.85
2023-03-17T19:58:24.728Z,9.84
2023-03-17T20:00:51.652Z,9.84
2023-03-17T20:03:18.658Z,9.82
2023-03-17T20:05:46.465Z,9.41
2023-03-17T20:08:13.720Z,9.29
2023-03-17T20:10:40.464Z,9.38
2023-03-17T20:13:07.229Z,9.15
2023-03-17T20:15:33.905Z,9.14
2023-03-17T20:18:00.788Z,9.32
2023-03-17T20:20:27.558Z,9.03
2023-03-17T20:22:54.265Z,8.99
2023-03-17T20:25:21.876Z,9.14
2023-03-17T20:27:48.555Z,9.12
2023-03-17T20:30:15.573Z,9.03
2023-03-17T20:32:42.295Z,8.95
2023-03-17T20:35:09.202Z,8.69
2023-03-17T20:37:35.911Z,8.74
2023-03-17T20:40:05.306Z,8.93
2023-03-17T20:42:32.111Z,8.83
2023-03-17T20:44:59.036Z,8.78
2023-03-17T20:47:26.679Z,8.72
2023-03-17T20:49:57.872Z,8.78
2023-03-17T20:52:28.254Z,8.80
2023-03-17T20:54:56.213Z,8.85
2023-03-17T20:57:22.956Z,8.70
2023-03-17T20:59:51.359Z,8.56
2023-03-17T21:02:19.390Z,8.56
2023-03-17T21:04:47.716Z,8.55
2023-03-17T21:07:16.126Z,8.57
2023-03-17T21:09:43.279Z,8.41
2023-03-17T21:12:20.582Z,8.48
2023-03-17T21:14:50.700Z,8.24
2023-03-17T21:17:18.143Z,7.96
2023-03-17T21:19:45.157Z,8.01
2023-03-17T21:22:12.544Z,8.05
2023-03-17T21:24:39.922Z,7.84
2023-03-17T21:27:11.285Z,7.78
2023-03-17T21:29:38.736Z,7.72
2023-03-17T21:32:07.346Z,7.84
2023-03-17T21:34:34.590Z,7.89
2023-03-17T21:37:01.675Z,7.86
2023-03-17T21:39:29.807Z,7.83
2023-03-17T21:41:57.602Z,7.88
2023-03-17T21:44:24.460Z,7.95
2023-03-17T21:46:51.161Z,7.91
2023-03-17T21:49:18.890Z,7.90
2023-03-17T21:51:46.849Z,7.78
2023-03-17T21:54:14.504Z,7.92
2023-03-17T21:56:41.904Z,7.88
2023-03-17T21:59:11.153Z,7.87
2023-03-17T22:01:39.742Z,7.77
2023-03-17T22:04:07.051Z,7.56
2023-03-17T22:06:34.155Z,7.49
2023-03-17T22:09:01.264Z,7.40
2023-03-17T22:11:27.954Z,7.10
2023-03-17T22:13:55.902Z,7.35
2023-03-17T22:16:22.605Z,7.47
2023-03-17T22:18:49.248Z,7.56
2023-03-17T22:21:15.898Z,7.07
2023-03-17T22:23:42.644Z,6.93
2023-03-17T22:26:13.352Z,7.17
2023-03-17T22:28:40.799Z,7.26
2023-03-17T22:31:12.208Z,7.29
2023-03-17T22:33:39.240Z,7.25
2023-03-17T22:36:06.582Z,7.10
2023-03-17T22:38:34.285Z,6.68
2023-03-17T22:41:08.075Z,6.50
2023-03-17T22:43:36.130Z,6.54
2023-03-17T22:46:03.716Z,6.55
2023-03-17T22:48:32.687Z,6.69
2023-03-17T22:51:07.923Z,6.31
2023-03-17T22:53:35.769Z,6.18
2023-03-17T22:56:04.172Z,6.32
2023-03-17T22:58:30.945Z,6.26
2023-03-17T23:00:57.664Z,6.33
2023-03-17T23:03:26.032Z,6.35
2023-03-17T23:05:57.114Z,6.37
2023-03-17T23:08:24.142Z,6.25
2023-03-17T23:10:51.257Z,6.04
2023-03-17T23:13:19.591Z,6.09
2023-03-17T23:15:47.424Z,6.17
2023-03-17T23:18:14.312Z,6.23
2023-03-17T23:20:41.931Z,6.25
2023-03-17T23:23:10.852Z,6.17
2023-03-17T23:25:38.399Z,6.06
2023-03-17T23:28:06.883Z,5.93
2023-03-17T23:30:35.801Z,5.87
2023-03-17T23:33:04.839Z,5.82
2023-03-17T23:35:32.087Z,5.88
2023-03-17T23:37:58.997Z,5.82
2023-03-17T23:40:25.667Z,5.74
2023-03-17T23:42:54.456Z,5.83
2023-03-17T23:45:23.203Z,5.68
2023-03-17T23:47:52.158Z,5.58
2023-03-17T23:50:20.190Z,5.56
2023-03-17T23:52:48.121Z,5.14
2023-03-17T23:55:16.860Z,5.15
2023-03-17T23:57:44.359Z,5.22
